Charlotte, North Carolina
Current Conditions -  °F | °C
As of 5:52 AM on Monday 20 Oct 2014 (Local Time) from KCLT Reporting Station
Scattered Clouds Scattered Clouds  
Wind Chill: 48°   Ceiling: Unl
Heat Index: 48°   Visibility: 10mi
Dew Point: 41°   Wind: 3mph
Humidity: 77%   Direction: 150°SSE
Pressure: 30.13"   Gusts: NA
Location:  35.22°N, 80.84°W
Report Text: KCLT 200952Z 15003KT 10SM SCT250 09/05 A3013 RMK AO2 SLP200 T00890050
Loading
Personal Weather Stations






























Interactive Weather Map New forecast layout! Learn more

10-Day Weather Forecast

Advertisements
Track Severe Weather on mobile